Time;durP1;ratioP1;P1;durP2;ratioP2;P2;SDS_P1;SDS_P2;PMS_P1;PMS_P2;Temp;Humidity;BMP_temperature;BMP_pressure;BME280_temperature;BME280_humidity;BME280_pressure;Samples;Min_cycle;Max_cycle;Signal;HPM_P1;HPM_P2
2022/02/09 00:00:07;;;;;;;1999.90;999.90;;;;;;;11.68;81.74;101920.94;15516339;28;20052;-61
2022/02/09 00:07:49;;;;;;;1999.90;999.90;;;;;;;11.52;81.40;101923.22;15493045;28;20054;-61
2022/02/09 00:15:33;;;;;;;1999.90;999.90;;;;;;;11.46;81.99;101943.19;15520245;28;20060;-61
2022/02/09 00:39:21;;;;;;;1999.90;999.90;;;;;;;11.34;81.69;101945.66;15363482;28;20061;-60
2022/02/09 01:03:01;;;;;;;1999.90;999.90;;;;;;;11.51;81.09;101971.06;15517739;28;20053;-60
2022/02/09 01:57:40;;;;;;;1999.90;999.90;;;;;;;11.43;80.19;101980.13;15515174;28;20130;-59
2022/02/09 02:05:14;;;;;;;1999.90;999.90;;;;;;;11.76;78.33;101967.72;15515083;28;20506;-59
2022/02/09 02:13:03;;;;;;;1999.90;999.90;;;;;;;11.95;78.48;101961.25;15524302;28;20050;-61
2022/02/09 02:20:49;;;;;;;1999.90;999.90;;;;;;;11.20;82.63;101942.84;15513145;28;20508;-59
2022/02/09 02:28:40;;;;;;;1999.90;999.90;;;;;;;11.21;84.00;101941.72;15525482;28;20046;-60
2022/02/09 03:16:03;;;;;;;1999.90;999.90;;;;;;;11.03;83.68;101928.63;15470516;28;20050;-60
2022/02/09 03:23:46;;;;;;;1999.90;999.90;;;;;;;11.18;82.43;101937.56;15493394;28;20133;-59
2022/02/09 03:42:14;;;;;;;1999.90;999.90;;;;;;;11.22;81.96;101941.41;15508457;28;20050;-60
2022/02/09 03:47:33;;;;;;;1999.90;999.90;;;;;;;11.32;81.28;101929.19;15514343;28;20138;-59
2022/02/09 03:55:15;;;;;;;1999.90;999.90;;;;;;;11.44;80.20;101943.50;15509406;28;20070;-60
2022/02/09 04:02:50;;;;;;;1999.90;999.90;;;;;;;11.51;80.03;101938.34;15530209;28;20461;-60
2022/02/09 04:10:30;;;;;;;1999.90;999.90;;;;;;;11.27;80.92;101934.91;15515427;28;20387;-61
2022/02/09 04:18:14;;;;;;;1999.90;999.90;;;;;;;11.42;80.12;101914.19;15526399;28;20046;-61
2022/02/09 04:41:49;;;;;;;1999.90;999.90;;;;;;;11.31;78.51;101913.56;15515977;28;20274;-59
2022/02/09 04:57:15;;;;;;;1999.90;999.90;;;;;;;11.37;76.86;101898.38;15524539;28;20534;-61
2022/02/09 05:28:14;;;;;;;1999.90;999.90;;;;;;;11.34;74.95;101895.34;15504739;28;20404;-60
2022/02/09 05:35:59;;;;;;;1999.90;999.90;;;;;;;11.39;74.10;101890.50;15521674;28;20224;-59
2022/02/09 05:43:31;;;;;;;1999.90;999.90;;;;;;;11.35;73.67;101883.84;15527074;28;20141;-60
2022/02/09 05:51:08;;;;;;;1999.90;999.90;;;;;;;11.39;73.76;101904.47;15530928;28;20125;-59
2022/02/09 05:58:46;;;;;;;1999.90;999.90;;;;;;;11.20;73.41;101895.34;15556306;28;20081;-60
2022/02/09 06:06:19;;;;;;;1999.90;999.90;;;;;;;11.34;72.83;101885.00;15533537;28;20064;-60
2022/02/09 06:14:21;;;;;;;1999.90;999.90;;;;;;;11.53;71.10;101894.13;15519236;28;20092;-60
2022/02/09 06:21:55;;;;;;;1999.90;999.90;;;;;;;11.14;72.99;101886.22;15557584;22;20050;-62
2022/02/09 06:29:27;;;;;;;1999.90;999.90;;;;;;;11.40;71.71;101886.56;15570542;28;20053;-61
2022/02/09 06:37:10;;;;;;;1999.90;999.90;;;;;;;11.22;72.30;101884.69;15540221;28;20092;-59
2022/02/09 06:44:43;;;;;;;1999.90;999.90;;;;;;;11.38;71.23;101872.09;15553144;28;20057;-59
2022/02/09 06:52:17;;;;;;;1999.90;999.90;;;;;;;11.32;70.82;101873.31;15553565;28;20050;-60
2022/02/09 06:59:50;;;;;;;1999.90;999.90;;;;;;;11.48;69.87;101868.25;15551165;28;20042;-59
2022/02/09 07:07:23;;;;;;;1999.90;999.90;;;;;;;11.43;70.10;101859.97;15535563;28;20427;-62
2022/02/09 07:14:55;;;;;;;1999.90;999.90;;;;;;;11.47;69.49;101867.44;15533489;28;20038;-59
2022/02/09 07:22:30;;;;;;;1999.90;999.90;;;;;;;11.72;68.94;101876.41;15630096;28;20093;-62
2022/02/09 07:30:04;;;;;;;1999.90;999.90;;;;;;;11.51;69.29;101884.41;15588434;28;20033;-60
2022/02/09 07:37:37;;;;;;;1999.90;999.90;;;;;;;11.75;68.33;101889.75;15606263;28;20394;-60
2022/02/09 07:45:28;;;;;;;1999.90;999.90;;;;;;;11.77;67.88;101888.28;15610923;28;20052;-61
2022/02/09 07:53:10;;;;;;;1999.90;999.90;;;;;;;11.53;69.24;101888.53;15592779;28;20151;-59
2022/02/09 08:00:45;;;;;;;1999.90;999.90;;;;;;;11.70;68.82;101881.47;15581521;28;20454;-60
2022/02/09 08:08:22;;;;;;;1999.90;999.90;;;;;;;11.56;68.79;101875.88;15592885;28;20053;-58
2022/02/09 08:32:24;;;;;;;1999.90;999.90;;;;;;;11.78;67.79;101863.97;15613574;28;20042;-59
2022/02/09 08:39:40;;;;;;;1999.90;999.90;;;;;;;11.86;67.20;101852.06;15606824;28;20045;-59
2022/02/09 08:47:13;;;;;;;1999.90;999.90;;;;;;;11.85;66.56;101859.63;15593078;28;20454;-59
2022/02/09 08:54:50;;;;;;;1999.90;999.90;;;;;;;12.15;66.86;101860.06;15601961;28;20140;-61
2022/02/09 09:02:30;;;;;;;1999.90;999.90;;;;;;;12.16;66.33;101853.31;15605707;28;20406;-61
2022/02/09 09:10:10;;;;;;;1999.90;999.90;;;;;;;12.18;65.99;101844.59;15615467;28;20060;-60
2022/02/09 09:18:15;;;;;;;1999.90;999.90;;;;;;;12.24;65.29;101830.19;15599065;28;20056;-60
2022/02/09 10:36:47;;;;;;;1999.90;999.90;;;;;;;11.86;63.88;101818.50;15609732;28;20046;-61
2022/02/09 10:44:23;;;;;;;1999.90;999.90;;;;;;;12.36;63.22;101812.81;15579771;28;20038;-60
2022/02/09 10:52:07;;;;;;;1999.90;999.90;;;;;;;12.31;62.75;101798.97;15601837;28;20058;-60
2022/02/09 10:59:47;;;;;;;1999.90;999.90;;;;;;;12.39;62.59;101798.16;15591386;28;20412;-59
2022/02/09 11:07:20;;;;;;;1999.90;999.90;;;;;;;12.37;62.31;101790.09;15613715;28;20626;-62
2022/02/09 11:14:53;;;;;;;1999.90;999.90;;;;;;;12.29;62.76;101784.44;15594245;28;20046;-61
2022/02/09 11:22:29;;;;;;;1999.90;999.90;;;;;;;12.37;62.42;101781.69;15611732;28;20084;-59
2022/02/09 11:30:18;;;;;;;1999.90;999.90;;;;;;;13.11;60.77;101786.69;15613325;28;20045;-61
2022/02/09 11:38:24;;;;;;;1999.90;999.90;;;;;;;12.73;61.29;101779.94;15571074;28;20137;-60
2022/02/09 11:46:19;;;;;;;1999.90;999.90;;;;;;;12.58;61.40;101782.00;15574660;28;20068;-59
2022/02/09 12:10:21;;;;;;;1999.90;999.90;;;;;;;12.24;63.00;101776.19;15586808;28;20451;-60
2022/02/09 12:18:13;;;;;;;;;;;;;;;12.46;62.75;101770.56;15574700;28;20055;-59
2022/02/09 12:25:47;;;;;;;1999.90;999.90;;;;;;;11.79;67.93;101777.00;15678453;22;19927;-59
2022/02/09 12:33:22;;;;;;;1999.90;999.90;;;;;;;11.97;68.81;101791.94;15713483;28;20103;-58
2022/02/09 12:41:09;;;;;;;1999.90;999.90;;;;;;;11.60;71.52;101764.28;15734120;28;20101;-59
2022/02/09 12:48:42;;;;;;;1999.90;999.90;;;;;;;11.44;71.38;101761.00;15717889;28;20045;-57
2022/02/09 12:56:19;;;;;;;1999.90;999.90;;;;;;;11.75;70.07;101759.16;15717737;28;20079;-58
2022/02/09 13:03:53;;;;;;;1999.90;999.90;;;;;;;12.09;68.04;101755.84;15722164;28;20119;-57
2022/02/09 13:11:28;;;;;;;;;;;;;;;12.40;66.88;101750.28;15753700;28;20469;-58
2022/02/09 13:19:09;;;;;;;1999.90;999.90;;;;;;;12.64;66.36;101740.69;15717962;28;19920;-58
2022/02/09 14:14:00;;;;;;;1999.90;999.90;;;;;;;12.39;66.21;101731.00;15699613;28;20067;-62
2022/02/09 14:53:09;;;;;;;1999.90;999.90;;;;;;;12.23;66.81;101752.97;15660039;28;20045;-60
2022/02/09 15:00:56;;;;;;;1999.90;999.90;;;;;;;11.98;67.00;101754.41;15659718;28;20045;-63
2022/02/09 15:08:35;;;;;;;1999.90;999.90;;;;;;;11.66;67.73;101751.81;15677754;28;20049;-63
2022/02/09 15:16:15;;;;;;;1999.90;999.90;;;;;;;11.81;68.05;101768.28;15677583;28;20044;-60
2022/02/09 15:23:50;;;;;;;1999.90;999.90;;;;;;;11.04;72.88;101760.72;15658521;28;20064;-62
2022/02/09 15:31:29;;;;;;;1999.90;999.90;;;;;;;11.11;74.16;101771.50;15682352;28;20040;-61
2022/02/09 15:39:03;;;;;;;1999.90;999.90;;;;;;;11.28;73.58;101772.53;15740247;28;20041;-61
2022/02/09 16:10:28;;;;;;;1999.90;999.90;;;;;;;11.88;68.18;101760.28;15701118;28;20315;-62
2022/02/09 16:26:19;;;;;;;1999.90;999.90;;;;;;;11.81;68.01;101757.09;15700243;28;20045;-62
2022/02/09 16:49:44;;;;;;;1999.90;999.90;;;;;;;11.51;70.12;101776.19;15735942;28;20557;-63
2022/02/09 19:32:15;;;;;;;1999.90;999.90;;;;;;;11.53;68.21;101787.88;15648929;28;20118;-60
2022/02/09 19:47:55;;;;;;;1999.90;999.90;;;;;;;11.85;66.82;101789.69;15622088;28;20398;-60
2022/02/09 19:55:35;;;;;;;1999.90;999.90;;;;;;;11.48;67.82;101787.19;15644038;28;20271;-59
2022/02/09 20:03:13;;;;;;;1999.90;999.90;;;;;;;11.53;67.48;101785.09;15659604;28;20033;-60
2022/02/09 20:10:47;;;;;;;1999.90;999.90;;;;;;;11.32;67.99;101778.31;15654476;28;20054;-61
2022/02/09 20:18:20;;;;;;;1999.90;999.90;;;;;;;11.75;66.66;101777.91;15641652;28;20045;-61
2022/02/09 20:25:52;;;;;;;1999.90;999.90;;;;;;;11.61;67.09;101772.34;15650145;28;20033;-59
2022/02/09 20:33:36;;;;;;;1999.90;999.90;;;;;;;11.30;68.05;101769.41;15647399;28;20065;-61
2022/02/09 20:41:09;;;;;;;1999.90;999.90;;;;;;;11.38;67.38;101762.25;15618716;28;20049;-59
2022/02/09 20:48:43;;;;;;;1999.90;999.90;;;;;;;11.31;67.90;101770.22;15631407;28;20503;-60
2022/02/09 20:56:15;;;;;;;;;;;;;;;11.37;67.62;101782.97;15662995;28;20492;-59
2022/02/09 21:03:52;;;;;;;1999.90;999.90;;;;;;;11.28;68.22;101772.53;15653019;28;20374;-58
2022/02/09 21:11:37;;;;;;;1999.90;999.90;;;;;;;11.57;66.97;101788.13;15649676;28;20041;-60
2022/02/09 21:19:41;;;;;;;1999.90;999.90;;;;;;;11.40;68.10;101782.34;15651877;28;20322;-61
2022/02/09 21:58:41;;;;;;;1999.90;999.90;;;;;;;11.23;68.26;101755.84;15620178;28;20057;-57
2022/02/09 22:06:32;;;;;;;1999.90;999.90;;;;;;;11.23;68.03;101766.19;15606950;28;20053;-58
2022/02/09 22:22:04;;;;;;;1999.90;999.90;;;;;;;11.49;67.05;101766.47;15647809;28;20516;-59
2022/02/09 22:30:04;;;;;;;1999.90;999.90;;;;;;;11.69;66.47;101749.25;15612914;28;20175;-58
2022/02/09 22:45:34;;;;;;;1999.90;999.90;;;;;;;11.42;66.79;101743.72;15684608;28;20037;-62
2022/02/09 23:01:05;;;;;;;1999.90;999.90;;;;;;;11.26;66.92;101737.66;15657240;28;20052;-60
2022/02/09 23:16:56;;;;;;;1999.90;999.90;;;;;;;11.40;66.31;101730.06;15674607;28;20253;-59
2022/02/09 23:25:03;;;;;;;1999.90;999.90;;;;;;;11.20;66.95;101722.13;15674391;28;20111;-60
2022/02/09 23:56:37;;;;;;;1999.90;999.90;;;;;;;11.27;66.49;101706.59;15637221;28;20070;-59
